createdAt,value
2023-01-01T00:01:12.273Z,12.18
2023-01-01T00:03:39.329Z,16.65
2023-01-01T00:06:13.728Z,14.52
2023-01-01T00:08:40.832Z,16.52
2023-01-01T00:11:09.270Z,15.48
2023-01-01T00:13:38.489Z,19.00
2023-01-01T00:16:05.872Z,15.27
2023-01-01T00:18:32.881Z,15.35
2023-01-01T00:21:15.387Z,18.85
2023-01-01T00:23:41.998Z,21.52
2023-01-01T00:26:13.388Z,19.80
2023-01-01T00:28:39.952Z,16.23
2023-01-01T00:31:17.423Z,20.88
2023-01-01T00:33:44.916Z,16.55
2023-01-01T00:36:14.514Z,21.52
2023-01-01T00:38:42.866Z,13.48
2023-01-01T00:41:09.860Z,16.85
2023-01-01T00:43:36.941Z,23.15
2023-01-01T00:46:04.838Z,20.38
2023-01-01T00:48:32.263Z,17.73
2023-01-01T00:51:08.272Z,15.60
2023-01-01T00:53:35.054Z,15.48
2023-01-01T00:56:01.678Z,18.58
2023-01-01T00:58:28.513Z,13.80
2023-01-01T01:00:55.409Z,17.13
2023-01-01T01:03:28.810Z,15.40
2023-01-01T01:05:59.292Z,23.33
2023-01-01T01:08:30.907Z,19.80
2023-01-01T01:11:09.341Z,21.17
2023-01-01T01:13:37.008Z,23.58
2023-01-01T01:16:19.234Z,21.08
2023-01-01T01:19:00.359Z,21.40
2023-01-01T01:21:30.536Z,19.75
2023-01-01T01:23:59.772Z,21.35
2023-01-01T01:26:30.577Z,18.35
2023-01-01T01:28:58.250Z,20.17
2023-01-01T01:31:28.444Z,18.50
2023-01-01T01:33:55.467Z,22.80
2023-01-01T01:36:22.238Z,21.25
2023-01-01T01:38:48.867Z,17.23
2023-01-01T01:41:27.497Z,16.48
2023-01-01T01:44:00.752Z,17.17
2023-01-01T01:46:34.756Z,18.73
2023-01-01T01:49:10.127Z,15.27
2023-01-01T01:51:39.732Z,14.32
2023-01-01T01:56:42.342Z,11.82
2023-01-01T01:59:09.417Z,15.77
2023-01-01T02:01:36.179Z,11.13
2023-01-01T02:04:03.860Z,10.98
2023-01-01T02:06:32.668Z,16.92
2023-01-01T02:09:03.609Z,14.13
2023-01-01T02:11:30.373Z,18.45
2023-01-01T02:13:57.983Z,15.10
2023-01-01T02:16:27.127Z,14.73
2023-01-01T02:18:56.479Z,13.50
2023-01-01T02:21:33.587Z,12.68
2023-01-01T02:24:03.039Z,12.00
2023-01-01T02:29:11.754Z,15.68
2023-01-01T02:31:52.205Z,12.75
2023-01-01T02:34:24.254Z,14.88
2023-01-01T02:36:55.866Z,13.40
2023-01-01T02:39:28.041Z,15.88
2023-01-01T02:41:57.770Z,16.70
2023-01-01T02:44:26.976Z,16.88
2023-01-01T02:46:53.749Z,13.07
2023-01-01T02:49:27.288Z,13.80
2023-01-01T02:52:42.913Z,12.63
2023-01-01T02:55:38.719Z,11.43
2023-01-01T02:58:47.167Z,9.63
2023-01-01T03:01:28.510Z,8.97
2023-01-01T03:04:07.099Z,9.38
2023-01-01T03:07:06.567Z,10.18
2023-01-01T03:12:45.530Z,8.60
2023-01-01T03:15:45.619Z,8.18
2023-01-01T03:18:30.940Z,9.43
2023-01-01T03:21:02.504Z,9.00
2023-01-01T03:23:46.008Z,7.57
2023-01-01T03:26:18.334Z,5.80
2023-01-01T03:28:55.943Z,12.65
2023-01-01T03:31:25.841Z,9.05
2023-01-01T03:34:00.120Z,7.68
2023-01-01T03:36:39.194Z,7.43
2023-01-01T03:39:17.563Z,7.88
2023-01-01T03:41:49.805Z,6.85
2023-01-01T03:44:44.168Z,7.05
2023-01-01T03:47:10.784Z,6.90
2023-01-01T03:49:37.481Z,5.05
2023-01-01T03:52:19.982Z,9.00
2023-01-01T03:55:09.073Z,5.53
2023-01-01T03:57:41.787Z,6.80
2023-01-01T04:00:17.295Z,6.72
2023-01-01T04:02:58.993Z,4.60
2023-01-01T04:05:26.944Z,6.38
2023-01-01T04:07:54.192Z,7.60
2023-01-01T04:10:22.428Z,5.32
2023-01-01T04:12:55.462Z,4.28
2023-01-01T04:15:25.977Z,6.43
2023-01-01T04:17:53.759Z,6.10
2023-01-01T04:20:21.089Z,5.32
2023-01-01T04:22:48.026Z,4.47
2023-01-01T04:25:15.310Z,10.88
2023-01-01T04:27:44.244Z,7.78
2023-01-01T04:30:13.126Z,2.90
2023-01-01T04:32:40.086Z,6.00
2023-01-01T04:35:07.941Z,5.75
2023-01-01T04:37:37.981Z,7.38
2023-01-01T04:40:06.043Z,6.53
2023-01-01T04:42:35.639Z,5.50
2023-01-01T04:45:02.585Z,7.15
2023-01-01T04:47:29.199Z,8.13
2023-01-01T04:49:55.876Z,5.10
2023-01-01T04:52:22.501Z,8.07
2023-01-01T04:54:49.085Z,9.60
2023-01-01T04:57:16.218Z,5.10
2023-01-01T04:59:42.830Z,5.50
2023-01-01T05:02:09.542Z,5.32
2023-01-01T05:04:36.240Z,4.18
2023-01-01T05:07:02.835Z,3.85
2023-01-01T05:09:38.501Z,6.80
2023-01-01T05:12:05.256Z,5.45
2023-01-01T05:14:31.828Z,4.70
2023-01-01T05:16:58.438Z,6.93
2023-01-01T05:19:25.093Z,2.35
2023-01-01T05:21:51.661Z,3.47
2023-01-01T05:24:18.231Z,4.22
2023-01-01T05:26:45.329Z,5.43
2023-01-01T05:29:16.417Z,7.28
2023-01-01T05:31:44.939Z,7.53
2023-01-01T05:34:11.775Z,3.58
2023-01-01T05:36:39.241Z,5.32
2023-01-01T05:39:12.449Z,6.70
2023-01-01T05:41:42.154Z,4.38
2023-01-01T05:44:09.711Z,4.72
2023-01-01T05:46:36.561Z,3.22
2023-01-01T05:49:03.230Z,3.17
2023-01-01T05:53:58.236Z,3.10
2023-01-01T05:56:25.650Z,4.70
2023-01-01T05:58:52.257Z,9.60
2023-01-01T06:01:21.717Z,7.40
2023-01-01T06:06:22.991Z,7.45
2023-01-01T06:08:52.400Z,6.57
2023-01-01T06:11:19.517Z,4.75
2023-01-01T06:13:47.216Z,6.50
2023-01-01T06:16:14.795Z,2.97
2023-01-01T06:18:41.695Z,3.63
2023-01-01T06:21:29.251Z,5.68
2023-01-01T06:23:57.530Z,10.25
2023-01-01T06:26:27.680Z,4.50
2023-01-01T06:28:56.056Z,6.28
2023-01-01T06:31:23.628Z,6.70
2023-01-01T06:33:51.037Z,6.35
2023-01-01T06:36:20.080Z,5.45
2023-01-01T06:38:48.808Z,4.78
2023-01-01T06:41:21.086Z,4.80
2023-01-01T06:43:47.939Z,7.20
2023-01-01T06:46:20.714Z,3.78
2023-01-01T06:48:49.390Z,4.70
2023-01-01T06:51:27.654Z,7.77
2023-01-01T06:53:54.966Z,7.03
2023-01-01T06:56:22.050Z,3.63
2023-01-01T06:58:48.949Z,8.07
2023-01-01T07:01:18.176Z,5.38
2023-01-01T07:03:54.296Z,5.65
2023-01-01T07:06:22.150Z,6.60
2023-01-01T07:08:49.344Z,3.67
2023-01-01T07:11:16.105Z,3.75
2023-01-01T07:13:44.111Z,10.90
2023-01-01T07:16:13.297Z,6.57
2023-01-01T07:21:26.658Z,6.60
2023-01-01T07:23:56.384Z,4.53
2023-01-01T07:26:27.313Z,7.18
2023-01-01T07:28:54.259Z,4.85
2023-01-01T07:31:20.990Z,5.35
2023-01-01T07:33:47.694Z,5.07
2023-01-01T07:36:16.695Z,5.35
2023-01-01T07:38:43.186Z,5.43
2023-01-01T07:41:09.941Z,9.32
2023-01-01T07:43:36.493Z,5.43
2023-01-01T07:46:03.373Z,6.28
2023-01-01T07:48:34.656Z,4.00
2023-01-01T07:51:04.539Z,4.97
2023-01-01T07:53:31.096Z,4.70
2023-01-01T07:55:57.642Z,7.43
2023-01-01T07:58:24.194Z,9.15
2023-01-01T08:00:53.965Z,5.05
2023-01-01T08:03:20.549Z,5.60
2023-01-01T08:05:50.737Z,7.30
2023-01-01T08:10:45.950Z,8.93
2023-01-01T08:13:12.490Z,4.93
2023-01-01T08:15:39.116Z,4.85
2023-01-01T08:18:06.007Z,9.07
2023-01-01T08:20:33.546Z,5.78
2023-01-01T08:23:07.153Z,6.15
2023-01-01T08:25:34.895Z,7.13
2023-01-01T08:28:01.524Z,5.88
2023-01-01T08:30:28.200Z,7.47
2023-01-01T08:32:54.750Z,8.50
2023-01-01T08:35:21.360Z,5.47
2023-01-01T08:37:47.984Z,8.77
2023-01-01T08:40:14.795Z,16.10
2023-01-01T08:42:41.476Z,7.53
2023-01-01T08:45:09.096Z,6.72
2023-01-01T08:47:35.692Z,7.53
2023-01-01T08:50:02.335Z,6.80
2023-01-01T08:52:29.251Z,7.80
2023-01-01T08:54:56.007Z,12.45
2023-01-01T08:57:22.592Z,8.95
2023-01-01T08:59:49.192Z,4.82
2023-01-01T09:02:19.470Z,8.80
2023-01-01T09:04:46.164Z,6.55
2023-01-01T09:07:12.669Z,5.25
2023-01-01T09:09:39.252Z,10.20
2023-01-01T09:12:06.308Z,7.93
2023-01-01T09:14:34.164Z,7.90
2023-01-01T09:17:01.427Z,10.95
2023-01-01T09:19:28.209Z,10.00
2023-01-01T09:21:55.289Z,7.47
2023-01-01T09:24:21.985Z,11.13
2023-01-01T09:26:49.867Z,7.72
2023-01-01T09:29:18.673Z,3.42
2023-01-01T09:31:45.583Z,7.53
2023-01-01T09:34:12.479Z,7.03
2023-01-01T09:36:39.411Z,6.60
2023-01-01T09:39:06.510Z,6.07
2023-01-01T09:41:57.913Z,9.02
2023-01-01T09:44:45.173Z,7.03
2023-01-01T09:47:22.187Z,6.05
2023-01-01T09:49:50.828Z,6.75
2023-01-01T09:52:20.112Z,6.57
2023-01-01T09:54:57.580Z,8.57
2023-01-01T09:57:31.960Z,3.08
2023-01-01T09:59:59.521Z,8.05
2023-01-01T10:02:29.069Z,4.43
2023-01-01T10:08:01.626Z,3.28
2023-01-01T10:10:49.969Z,5.90
2023-01-01T10:13:38.480Z,5.10
2023-01-01T10:16:25.482Z,4.20
2023-01-01T10:18:58.784Z,3.67
2023-01-01T10:21:43.514Z,8.20
2023-01-01T10:24:42.911Z,6.65
2023-01-01T10:27:23.467Z,5.05
2023-01-01T10:29:55.480Z,6.20
2023-01-01T10:32:36.296Z,5.07
2023-01-01T10:35:13.876Z,5.90
2023-01-01T10:37:41.771Z,4.53
2023-01-01T10:40:30.517Z,4.25
2023-01-01T10:42:59.521Z,5.38
2023-01-01T10:45:29.162Z,11.07
2023-01-01T10:48:18.877Z,6.43
2023-01-01T10:51:22.446Z,3.53
2023-01-01T10:53:55.663Z,7.53
2023-01-01T10:57:03.985Z,6.88
2023-01-01T10:59:38.131Z,6.28
2023-01-01T11:02:22.373Z,6.85
2023-01-01T11:05:23.214Z,7.53
2023-01-01T11:07:53.175Z,8.88
2023-01-01T11:10:39.959Z,6.40
2023-01-01T11:13:23.409Z,5.93
2023-01-01T11:16:11.945Z,7.93
2023-01-01T11:18:42.273Z,6.03
2023-01-01T11:21:13.372Z,7.07
2023-01-01T11:23:44.234Z,9.73
2023-01-01T11:26:22.589Z,6.95
2023-01-01T11:29:33.655Z,7.38
2023-01-01T11:32:21.460Z,6.60
2023-01-01T11:35:16.514Z,7.75
2023-01-01T11:37:51.066Z,6.72
2023-01-01T11:40:37.353Z,9.38
2023-01-01T11:43:26.199Z,10.07
2023-01-01T11:46:07.213Z,9.68
2023-01-01T11:48:52.267Z,8.95
2023-01-01T11:51:53.455Z,9.27
2023-01-01T11:54:38.995Z,7.45
2023-01-01T11:57:19.190Z,9.93
2023-01-01T12:00:00.329Z,9.05
2023-01-01T12:02:42.779Z,11.10
2023-01-01T12:05:30.664Z,11.60
2023-01-01T12:08:17.388Z,9.20
2023-01-01T12:11:24.751Z,9.60
2023-01-01T12:14:17.431Z,10.05
2023-01-01T12:17:33.287Z,9.45
2023-01-01T12:20:31.440Z,8.93
2023-01-01T12:23:07.744Z,6.68
2023-01-01T12:25:47.794Z,7.53
2023-01-01T12:29:10.451Z,7.30
2023-01-01T12:31:52.813Z,8.07
2023-01-01T12:34:43.848Z,8.73
2023-01-01T12:37:36.180Z,5.88
2023-01-01T12:40:37.327Z,11.88
2023-01-01T12:43:28.826Z,9.65
2023-01-01T12:46:27.363Z,12.80
2023-01-01T12:49:58.798Z,5.60
2023-01-01T12:53:12.794Z,10.50
2023-01-01T12:56:22.540Z,9.80
2023-01-01T12:59:20.051Z,11.98
2023-01-01T13:02:02.206Z,12.68
2023-01-01T13:04:43.422Z,9.05
2023-01-01T13:07:19.124Z,8.27
2023-01-01T13:10:00.972Z,7.37
2023-01-01T13:13:05.623Z,7.72
2023-01-01T13:15:51.131Z,9.07
2023-01-01T13:19:29.690Z,6.30
2023-01-01T13:21:41.374Z,9.75
2023-01-01T13:24:40.432Z,9.27
2023-01-01T13:27:52.479Z,8.13
2023-01-01T13:30:47.178Z,8.38
2023-01-01T13:33:33.789Z,9.23
2023-01-01T13:36:42.911Z,6.40
2023-01-01T13:40:16.743Z,8.45
2023-01-01T13:42:59.345Z,11.50
2023-01-01T13:49:01.945Z,11.23
2023-01-01T13:52:05.833Z,6.20
2023-01-01T13:54:59.336Z,12.15
2023-01-01T13:58:01.278Z,9.70
2023-01-01T14:00:47.937Z,9.30
2023-01-01T14:06:02.494Z,8.80
2023-01-01T14:08:42.190Z,15.60
2023-01-01T14:11:30.442Z,3.55
2023-01-01T14:14:34.816Z,11.73
2023-01-01T14:17:15.021Z,7.07
2023-01-01T14:19:50.555Z,5.28
2023-01-01T14:22:23.980Z,12.07
2023-01-01T14:25:09.484Z,8.85
2023-01-01T14:27:59.869Z,11.93
2023-01-01T14:30:41.271Z,9.00
2023-01-01T14:33:38.584Z,8.68
2023-01-01T14:36:31.029Z,5.05
2023-01-01T14:39:06.163Z,10.32
2023-01-01T14:42:04.668Z,9.10
2023-01-01T14:44:43.669Z,7.15
2023-01-01T14:50:20.175Z,14.52
2023-01-01T14:53:08.936Z,15.73
2023-01-01T14:55:46.225Z,10.32
2023-01-01T14:58:47.449Z,10.35
2023-01-01T15:01:31.819Z,13.27
2023-01-01T15:04:04.164Z,9.77
2023-01-01T15:06:34.520Z,6.13
2023-01-01T15:09:09.556Z,6.85
2023-01-01T15:11:45.412Z,7.03
2023-01-01T15:14:41.171Z,8.25
2023-01-01T15:17:14.238Z,7.97
2023-01-01T15:20:04.072Z,9.35
2023-01-01T15:22:46.853Z,12.85
2023-01-01T15:25:31.777Z,5.60
2023-01-01T15:28:05.742Z,5.32
2023-01-01T15:30:34.447Z,12.40
2023-01-01T15:33:18.500Z,14.30
2023-01-01T15:36:13.787Z,11.23
2023-01-01T15:39:01.275Z,7.72
2023-01-01T15:41:55.399Z,10.43
2023-01-01T15:44:58.237Z,10.00
2023-01-01T15:53:28.102Z,8.48
2023-01-01T15:56:18.460Z,11.75
2023-01-01T15:59:17.430Z,11.20
2023-01-01T16:02:21.419Z,9.05
2023-01-01T16:05:00.243Z,6.78
2023-01-01T16:07:33.072Z,12.00
2023-01-01T16:10:22.971Z,15.75
2023-01-01T16:12:57.640Z,10.38
2023-01-01T16:15:46.246Z,16.23
2023-01-01T16:18:27.156Z,10.65
2023-01-01T16:21:02.819Z,11.45
2023-01-01T16:23:36.129Z,7.55
2023-01-01T16:26:17.607Z,9.60
2023-01-01T16:29:04.932Z,12.73
2023-01-01T16:31:37.138Z,13.88
2023-01-01T16:34:16.115Z,11.68
2023-01-01T16:36:50.851Z,15.07
2023-01-01T16:39:20.760Z,20.00
2023-01-01T16:41:59.586Z,13.35
2023-01-01T16:44:32.219Z,11.52
2023-01-01T16:47:10.273Z,13.30
2023-01-01T16:52:28.738Z,12.70
2023-01-01T16:55:04.539Z,12.93
2023-01-01T16:57:50.787Z,16.17
2023-01-01T17:00:20.905Z,13.32
2023-01-01T17:03:04.878Z,23.02
2023-01-01T17:05:43.623Z,27.60
2023-01-01T17:08:12.020Z,16.42
2023-01-01T17:11:09.562Z,16.23
2023-01-01T17:13:55.402Z,15.57
2023-01-01T17:16:41.145Z,12.38
2023-01-01T17:19:16.682Z,15.35
2023-01-01T17:21:57.719Z,11.45
2023-01-01T17:24:31.364Z,12.90
2023-01-01T17:27:08.258Z,13.65
2023-01-01T17:30:05.507Z,10.02
2023-01-01T17:32:38.802Z,12.82
2023-01-01T17:35:33.040Z,7.50
2023-01-01T17:38:03.232Z,6.55
2023-01-01T17:40:37.009Z,8.55
2023-01-01T17:43:05.222Z,9.27
2023-01-01T17:45:47.926Z,9.48
2023-01-01T17:48:28.216Z,10.07
2023-01-01T17:51:05.703Z,7.25
2023-01-01T17:53:46.172Z,5.85
2023-01-01T17:56:21.408Z,11.38
2023-01-01T17:58:59.181Z,11.73
2023-01-01T18:01:43.651Z,7.13
2023-01-01T18:04:22.913Z,8.02
2023-01-01T18:07:05.951Z,9.68
2023-01-01T18:09:51.537Z,8.15
2023-01-01T18:12:27.889Z,7.97
2023-01-01T18:15:06.105Z,9.80
2023-01-01T18:17:49.746Z,6.80
2023-01-01T18:20:29.792Z,9.82
2023-01-01T18:23:01.438Z,8.88
2023-01-01T18:25:38.639Z,11.80
2023-01-01T18:28:13.191Z,7.30
2023-01-01T18:30:51.301Z,7.13
2023-01-01T18:33:24.771Z,7.07
2023-01-01T18:36:13.939Z,6.25
2023-01-01T18:39:00.147Z,6.55
2023-01-01T18:41:47.529Z,7.93
2023-01-01T18:44:30.155Z,9.85
2023-01-01T18:47:17.806Z,10.07
2023-01-01T18:50:02.880Z,7.60
2023-01-01T18:52:38.713Z,5.03
2023-01-01T18:55:19.801Z,8.93
2023-01-01T18:58:30.626Z,6.85
2023-01-01T19:01:20.643Z,5.63
2023-01-01T19:04:02.135Z,5.82
2023-01-01T19:06:55.194Z,9.70
2023-01-01T19:09:30.535Z,5.60
2023-01-01T19:12:01.680Z,9.07
2023-01-01T19:14:32.937Z,9.90
2023-01-01T19:17:05.608Z,5.93
2023-01-01T19:19:48.929Z,10.35
2023-01-01T19:22:29.983Z,6.25
2023-01-01T19:25:39.153Z,10.82
2023-01-01T19:28:19.088Z,8.13
2023-01-01T19:30:55.782Z,6.32
2023-01-01T19:33:32.261Z,7.47
2023-01-01T19:36:08.508Z,7.68
2023-01-01T19:38:44.452Z,12.02
2023-01-01T19:41:11.665Z,6.60
2023-01-01T19:43:38.697Z,9.73
2023-01-01T19:46:05.520Z,9.50
2023-01-01T19:48:32.151Z,9.80
2023-01-01T19:50:58.851Z,9.23
2023-01-01T19:53:25.409Z,11.75
2023-01-01T19:55:51.985Z,12.48
2023-01-01T19:58:19.926Z,9.93
2023-01-01T20:00:46.607Z,9.25
2023-01-01T20:06:01.721Z,7.65
2023-01-01T20:08:28.925Z,8.13
2023-01-01T20:10:55.502Z,9.75
2023-01-01T20:13:22.312Z,10.10
2023-01-01T20:15:48.926Z,8.82
2023-01-01T20:18:16.300Z,9.65
2023-01-01T20:21:03.177Z,13.48
2023-01-01T20:23:29.855Z,11.38
2023-01-01T20:25:56.486Z,11.93
2023-01-01T20:28:41.669Z,10.75
2023-01-01T20:31:08.292Z,13.02
2023-01-01T20:33:34.844Z,13.23
2023-01-01T20:36:19.813Z,10.35
2023-01-01T20:38:46.342Z,11.70
2023-01-01T20:41:25.117Z,11.32
2023-01-01T20:43:53.641Z,16.35
2023-01-01T20:46:20.497Z,11.25
2023-01-01T20:48:47.213Z,12.45
2023-01-01T20:51:14.259Z,10.52
2023-01-01T20:53:40.824Z,11.18
2023-01-01T20:56:07.549Z,12.88
2023-01-01T20:58:34.171Z,11.60
2023-01-01T21:01:00.856Z,15.13
2023-01-01T21:03:27.915Z,10.00
2023-01-01T21:05:55.486Z,12.45
2023-01-01T21:08:22.028Z,16.55
2023-01-01T21:10:48.795Z,12.98
2023-01-01T21:13:15.422Z,15.05
2023-01-01T21:15:42.209Z,15.25
2023-01-01T21:18:12.490Z,13.73
2023-01-01T21:20:44.877Z,14.00
2023-01-01T21:23:27.771Z,14.48
2023-01-01T21:25:54.721Z,13.40
2023-01-01T21:28:21.949Z,11.98
2023-01-01T21:30:55.478Z,15.43
2023-01-01T21:33:32.048Z,9.70
2023-01-01T21:36:11.302Z,12.93
2023-01-01T21:38:37.848Z,10.85
2023-01-01T21:41:23.586Z,13.45
2023-01-01T21:43:53.883Z,12.65
2023-01-01T21:46:34.495Z,15.10
2023-01-01T21:49:03.283Z,16.00
2023-01-01T21:51:38.145Z,17.42
2023-01-01T21:54:10.681Z,13.00
2023-01-01T21:56:39.548Z,11.00
2023-01-01T21:59:27.130Z,11.38
2023-01-01T22:02:06.202Z,11.60
2023-01-01T22:04:40.743Z,11.25
2023-01-01T22:10:16.486Z,17.02
2023-01-01T22:12:43.780Z,9.13
2023-01-01T22:15:25.731Z,11.05
2023-01-01T22:18:19.464Z,11.50
2023-01-01T22:20:47.320Z,10.07
2023-01-01T22:23:19.680Z,13.13
2023-01-01T22:25:47.488Z,12.23
2023-01-01T22:28:40.504Z,16.48
2023-01-01T22:31:13.269Z,10.98
2023-01-01T22:33:44.058Z,14.18
2023-01-01T22:36:33.622Z,12.15
2023-01-01T22:41:42.178Z,13.48
2023-01-01T22:44:13.282Z,10.10
2023-01-01T22:46:41.375Z,16.83
2023-01-01T22:49:38.799Z,13.02
2023-01-01T22:52:05.396Z,16.90
2023-01-01T22:54:31.965Z,10.55
2023-01-01T22:56:58.486Z,17.83
2023-01-01T22:59:25.019Z,21.63
2023-01-01T23:01:51.643Z,15.02
2023-01-01T23:04:18.301Z,9.48
2023-01-01T23:06:45.071Z,11.88
2023-01-01T23:09:12.365Z,10.02
2023-01-01T23:11:39.601Z,10.75
2023-01-01T23:14:24.390Z,13.80
2023-01-01T23:16:51.029Z,14.07
2023-01-01T23:19:17.976Z,13.13
2023-01-01T23:21:45.082Z,15.02
2023-01-01T23:24:16.930Z,10.18
2023-01-01T23:26:44.003Z,12.77
2023-01-01T23:29:12.861Z,14.23
2023-01-01T23:31:40.501Z,12.88
2023-01-01T23:34:07.954Z,12.85
2023-01-01T23:36:34.919Z,13.27
2023-01-01T23:39:01.483Z,14.43
2023-01-01T23:41:28.144Z,11.32
2023-01-01T23:43:54.689Z,16.85
2023-01-01T23:46:21.678Z,16.23
2023-01-01T23:48:48.895Z,13.73
2023-01-01T23:51:17.041Z,16.48
2023-01-01T23:53:43.680Z,15.93
2023-01-01T23:56:10.405Z,15.88
2023-01-01T23:58:37.010Z,15.55
